createdAt,value
2023-10-20T00:00:23.547Z,94.80
2023-10-20T00:03:09.145Z,95.50
2023-10-20T00:05:54.884Z,94.90
2023-10-20T00:08:41.165Z,94.90
2023-10-20T00:11:27.087Z,95.20
2023-10-20T00:14:13.073Z,95.30
2023-10-20T00:16:58.647Z,95.00
2023-10-20T00:19:44.787Z,96.30
2023-10-20T00:22:30.255Z,96.80
2023-10-20T00:25:16.036Z,96.10
2023-10-20T00:28:01.968Z,96.30
2023-10-20T00:30:47.369Z,96.40
2023-10-20T00:33:33.133Z,95.60
2023-10-20T00:36:18.982Z,95.40
2023-10-20T00:39:06.551Z,95.30
2023-10-20T00:41:52.094Z,95.50
2023-10-20T00:44:37.655Z,95.20
2023-10-20T00:47:23.928Z,95.10
2023-10-20T00:50:11.361Z,95.20
2023-10-20T00:52:57.289Z,95.30
2023-10-20T00:55:42.972Z,95.50
2023-10-20T00:58:30.072Z,95.30
2023-10-20T01:01:15.985Z,95.70
2023-10-20T01:04:03.045Z,95.80
2023-10-20T01:06:49.366Z,95.40
2023-10-20T01:09:35.304Z,95.10
2023-10-20T01:12:20.945Z,95.20
2023-10-20T01:15:07.899Z,95.30
2023-10-20T01:17:53.890Z,95.10
2023-10-20T01:20:39.865Z,95.30
2023-10-20T01:23:25.745Z,95.30
2023-10-20T01:26:11.631Z,95.20
2023-10-20T01:28:58.088Z,95.20
2023-10-20T01:31:43.983Z,96.10
2023-10-20T01:34:30.456Z,96.10
2023-10-20T01:37:16.524Z,95.50
2023-10-20T01:40:02.406Z,96.50
2023-10-20T01:42:48.105Z,95.50
2023-10-20T01:45:33.822Z,95.30
2023-10-20T01:48:19.464Z,95.20
2023-10-20T01:51:05.171Z,95.10
2023-10-20T01:53:50.735Z,95.30
2023-10-20T01:56:36.897Z,95.50
2023-10-20T01:59:22.461Z,95.30
2023-10-20T02:02:07.929Z,95.40
2023-10-20T02:04:53.937Z,95.80
2023-10-20T02:07:39.918Z,95.80
2023-10-20T02:10:25.466Z,96.20
2023-10-20T02:13:10.999Z,96.50
2023-10-20T02:15:56.601Z,96.40
2023-10-20T02:18:42.318Z,97.10
2023-10-20T02:21:27.720Z,96.90
2023-10-20T02:24:13.343Z,96.70
2023-10-20T02:26:59.072Z,96.70
2023-10-20T02:29:44.604Z,96.20
2023-10-20T02:32:30.043Z,96.30
2023-10-20T02:35:16.243Z,95.90
2023-10-20T02:38:02.115Z,95.60
2023-10-20T02:40:56.112Z,95.50
2023-10-20T02:43:42.223Z,95.80
2023-10-20T02:46:28.094Z,95.90
2023-10-20T02:49:13.769Z,96.00
2023-10-20T02:51:59.237Z,96.00
2023-10-20T02:54:44.719Z,95.80
2023-10-20T02:57:30.283Z,95.80
2023-10-20T03:00:16.220Z,96.00
2023-10-20T03:03:02.545Z,95.80
2023-10-20T03:05:48.595Z,95.70
2023-10-20T03:08:40.389Z,96.10
2023-10-20T03:11:26.775Z,96.50
2023-10-20T03:14:13.014Z,96.30
2023-10-20T03:16:59.019Z,96.10
2023-10-20T03:19:45.355Z,96.90
2023-10-20T03:22:31.233Z,96.30
2023-10-20T03:25:16.971Z,95.80
2023-10-20T03:28:02.797Z,95.80
2023-10-20T03:30:51.560Z,95.60
2023-10-20T03:33:37.922Z,95.80
2023-10-20T03:36:23.662Z,96.40
2023-10-20T03:39:09.540Z,96.00
2023-10-20T03:41:55.559Z,96.50
2023-10-20T03:44:41.448Z,96.30
2023-10-20T03:47:26.978Z,96.00
2023-10-20T03:50:12.992Z,95.80
2023-10-20T03:52:58.854Z,95.90
2023-10-20T03:55:44.725Z,95.80
2023-10-20T03:58:30.868Z,95.70
2023-10-20T04:01:16.676Z,95.60
2023-10-20T04:04:02.581Z,95.60
2023-10-20T04:06:48.041Z,96.40
2023-10-20T04:09:33.566Z,96.00
2023-10-20T04:12:19.544Z,95.80
2023-10-20T04:15:07.520Z,96.70
2023-10-20T04:17:53.588Z,96.50
2023-10-20T04:20:39.696Z,96.80
2023-10-20T04:23:25.424Z,97.10
2023-10-20T04:26:18.886Z,97.10
2023-10-20T04:29:04.763Z,97.60
2023-10-20T04:31:50.696Z,96.20
2023-10-20T04:34:36.915Z,96.20
2023-10-20T04:37:22.627Z,96.60
2023-10-20T04:40:08.747Z,95.90
2023-10-20T04:42:54.955Z,96.30
2023-10-20T04:45:40.845Z,96.50
2023-10-20T04:48:26.917Z,97.40
2023-10-20T04:51:12.289Z,96.40
2023-10-20T04:53:57.884Z,96.60
2023-10-20T04:56:43.552Z,97.20
2023-10-20T04:59:29.087Z,98.00
2023-10-20T05:02:14.597Z,97.10
2023-10-20T05:05:01.031Z,96.40
2023-10-20T05:07:46.551Z,96.20
2023-10-20T05:10:32.926Z,96.60
2023-10-20T05:13:18.805Z,96.80
2023-10-20T05:16:04.809Z,97.10
2023-10-20T05:18:50.670Z,97.10
2023-10-20T05:21:36.211Z,96.30
2023-10-20T05:24:21.878Z,97.10
2023-10-20T05:27:07.350Z,96.70
2023-10-20T05:29:53.363Z,96.70
2023-10-20T05:32:39.746Z,97.10
2023-10-20T05:35:25.720Z,96.40
2023-10-20T05:38:11.346Z,96.30
2023-10-20T05:40:59.906Z,96.00
2023-10-20T05:43:47.924Z,95.80
2023-10-20T05:46:33.823Z,96.80
2023-10-20T05:49:19.882Z,96.40
2023-10-20T05:52:05.428Z,96.30
2023-10-20T05:54:51.206Z,96.20
2023-10-20T05:57:36.560Z,96.10
2023-10-20T06:00:22.194Z,96.00
2023-10-20T06:03:08.051Z,96.60
2023-10-20T06:06:02.839Z,97.30
2023-10-20T06:08:48.669Z,97.10
2023-10-20T06:11:34.545Z,96.60
2023-10-20T06:14:22.045Z,96.60
2023-10-20T06:17:07.565Z,96.50
2023-10-20T06:19:53.300Z,96.40
2023-10-20T06:22:38.955Z,96.50
2023-10-20T06:25:24.392Z,96.40
2023-10-20T06:28:09.957Z,96.40
2023-10-20T06:30:55.497Z,96.50
2023-10-20T06:33:40.997Z,96.30
2023-10-20T06:36:26.507Z,96.30
2023-10-20T06:39:12.021Z,96.50
2023-10-20T06:41:57.569Z,96.40
2023-10-20T06:44:43.120Z,96.40
2023-10-20T06:47:29.141Z,96.60
2023-10-20T06:50:14.845Z,96.60
2023-10-20T06:53:00.743Z,96.70
2023-10-20T06:56:05.245Z,96.50
2023-10-20T06:58:52.965Z,96.40
2023-10-20T07:01:38.454Z,96.70
2023-10-20T07:04:24.338Z,96.60
2023-10-20T07:07:09.680Z,96.40
2023-10-20T07:09:55.285Z,96.30
2023-10-20T07:12:40.831Z,96.50
2023-10-20T07:15:26.688Z,97.00
2023-10-20T07:18:13.886Z,97.00
2023-10-20T07:20:59.830Z,97.10
2023-10-20T07:23:45.468Z,97.20
2023-10-20T07:26:32.293Z,97.10
2023-10-20T07:29:18.313Z,96.90
2023-10-20T07:32:04.460Z,97.00
2023-10-20T07:34:52.100Z,96.90
2023-10-20T07:37:39.489Z,96.70
2023-10-20T07:40:25.018Z,97.00
2023-10-20T07:43:10.514Z,97.10
2023-10-20T07:45:56.080Z,96.90
2023-10-20T07:48:42.172Z,96.80
2023-10-20T07:51:27.771Z,97.30
2023-10-20T07:54:13.685Z,97.90
2023-10-20T07:56:59.179Z,97.80
2023-10-20T07:59:44.947Z,98.30
2023-10-20T08:02:31.048Z,97.50
2023-10-20T08:05:17.217Z,97.80
2023-10-20T08:08:02.891Z,97.70
2023-10-20T08:10:50.796Z,97.90
2023-10-20T08:13:37.004Z,98.20
2023-10-20T08:16:22.618Z,97.80
2023-10-20T08:19:08.620Z,97.70
2023-10-20T08:21:54.225Z,98.20
2023-10-20T08:24:40.232Z,97.50
2023-10-20T08:27:25.780Z,97.50
2023-10-20T08:30:12.400Z,97.70
2023-10-20T08:32:57.887Z,97.40
2023-10-20T08:35:43.874Z,98.20
2023-10-20T08:38:29.348Z,97.80
2023-10-20T08:41:21.677Z,97.40
2023-10-20T08:44:07.420Z,97.30
2023-10-20T08:46:53.669Z,97.80
2023-10-20T08:49:40.751Z,98.10
2023-10-20T08:52:26.344Z,98.10
2023-10-20T08:55:11.852Z,97.80
2023-10-20T08:57:57.476Z,98.00
2023-10-20T09:00:51.443Z,98.30
2023-10-20T09:03:49.000Z,98.50
2023-10-20T09:06:34.745Z,98.90
2023-10-20T09:09:21.455Z,98.70
2023-10-20T09:12:07.648Z,98.40
2023-10-20T09:14:53.376Z,98.60
2023-10-20T09:17:39.384Z,99.00
2023-10-20T09:20:25.574Z,98.70
2023-10-20T09:23:13.486Z,99.00
2023-10-20T09:26:00.192Z,99.10
2023-10-20T09:28:52.053Z,99.90
2023-10-20T09:31:39.048Z,99.90
2023-10-20T09:34:25.199Z,98.60
2023-10-20T09:37:10.978Z,98.50
2023-10-20T09:40:08.253Z,99.90
2023-10-20T09:43:26.244Z,99.90
2023-10-20T09:46:57.064Z,99.30
2023-10-20T09:49:43.761Z,99.90
2023-10-20T09:52:30.264Z,99.90
2023-10-20T09:55:16.207Z,99.50
2023-10-20T09:58:02.277Z,98.90
2023-10-20T10:00:47.878Z,98.60
2023-10-20T10:03:37.268Z,99.10
2023-10-20T10:06:23.071Z,98.70
2023-10-20T10:09:08.445Z,98.70
2023-10-20T10:11:56.497Z,98.10
2023-10-20T10:14:42.962Z,98.90
2023-10-20T10:17:29.052Z,98.20
2023-10-20T10:20:27.278Z,98.60
2023-10-20T10:23:13.939Z,99.90
2023-10-20T10:26:00.064Z,99.00
2023-10-20T10:28:49.743Z,99.20
2023-10-20T10:31:36.932Z,99.20
2023-10-20T10:34:22.582Z,99.30
2023-10-20T10:37:08.413Z,99.90
2023-10-20T10:39:53.973Z,99.90
2023-10-20T10:42:47.915Z,99.50
2023-10-20T10:45:33.601Z,99.90
2023-10-20T10:48:19.477Z,99.70
2023-10-20T10:51:05.384Z,99.40
2023-10-20T10:53:52.510Z,99.50
2023-10-20T10:56:38.638Z,99.90
2023-10-20T10:59:24.806Z,99.90
2023-10-20T11:02:10.477Z,99.50
2023-10-20T11:04:56.131Z,99.90
2023-10-20T11:07:42.099Z,99.90
2023-10-20T11:10:29.370Z,99.90
2023-10-20T11:13:15.278Z,99.90
2023-10-20T11:16:01.285Z,99.90
2023-10-20T11:18:48.266Z,99.90
2023-10-20T11:21:49.181Z,99.90
2023-10-20T11:24:37.476Z,99.90
2023-10-20T11:27:23.499Z,99.90
2023-10-20T11:30:10.853Z,99.90
2023-10-20T11:32:57.127Z,99.90
2023-10-20T11:35:43.326Z,99.90
2023-10-20T11:38:29.485Z,99.90
2023-10-20T11:41:15.566Z,99.90
2023-10-20T11:44:01.505Z,99.90
2023-10-20T11:46:46.998Z,99.80
2023-10-20T11:49:32.402Z,99.90
2023-10-20T11:52:18.067Z,99.90
2023-10-20T11:55:06.252Z,99.90
2023-10-20T11:57:51.979Z,99.90
2023-10-20T12:00:38.311Z,99.80
2023-10-20T12:03:24.057Z,99.90
2023-10-20T12:06:09.678Z,99.90
2023-10-20T12:08:55.232Z,99.90
2023-10-20T12:11:40.857Z,99.90
2023-10-20T12:14:26.437Z,99.90
2023-10-20T12:17:11.812Z,99.90
2023-10-20T12:19:57.494Z,99.90
2023-10-20T12:22:42.904Z,99.90
2023-10-20T12:25:28.681Z,99.90
2023-10-20T12:28:14.338Z,99.90
2023-10-20T12:31:00.493Z,99.90
2023-10-20T12:33:47.072Z,99.90
2023-10-20T12:36:32.477Z,99.90
2023-10-20T12:39:17.919Z,99.70
2023-10-20T12:42:03.716Z,99.90
2023-10-20T12:44:49.453Z,99.90
2023-10-20T12:47:36.216Z,99.60
2023-10-20T12:50:22.155Z,99.50
2023-10-20T12:53:07.592Z,99.90
2023-10-20T12:55:56.219Z,99.90
2023-10-20T12:58:41.719Z,99.90
2023-10-20T13:01:27.289Z,99.70
2023-10-20T13:04:13.043Z,99.50
2023-10-20T13:07:00.930Z,99.40
2023-10-20T13:09:47.172Z,99.60
2023-10-20T13:12:32.832Z,99.60
2023-10-20T13:15:18.412Z,99.90
2023-10-20T13:18:04.288Z,99.50
2023-10-20T13:20:50.379Z,99.60
2023-10-20T13:23:35.991Z,99.60
2023-10-20T13:26:21.565Z,99.60
2023-10-20T13:29:07.492Z,99.90
2023-10-20T13:31:53.038Z,99.90
2023-10-20T13:34:38.504Z,99.80
2023-10-20T13:37:24.018Z,99.40
2023-10-20T13:40:10.599Z,99.70
2023-10-20T13:42:56.427Z,99.60
2023-10-20T13:45:42.078Z,99.90
2023-10-20T13:48:27.678Z,99.80
2023-10-20T13:51:13.653Z,99.70
2023-10-20T13:53:59.307Z,99.70
2023-10-20T13:56:44.722Z,99.50
2023-10-20T13:59:30.982Z,99.70
2023-10-20T14:02:16.424Z,99.90
2023-10-20T14:05:01.910Z,99.80
2023-10-20T14:07:47.554Z,99.90
2023-10-20T14:10:33.032Z,99.70
2023-10-20T14:13:19.112Z,99.50
2023-10-20T14:16:05.084Z,99.50
2023-10-20T14:18:50.453Z,99.20
2023-10-20T14:21:36.074Z,99.20
2023-10-20T14:24:21.609Z,99.40
2023-10-20T14:27:07.030Z,99.40
2023-10-20T14:29:52.634Z,99.60
2023-10-20T14:32:38.679Z,99.20
2023-10-20T14:35:24.412Z,99.20
2023-10-20T14:38:10.044Z,99.10
2023-10-20T14:41:07.748Z,99.20
2023-10-20T14:43:53.694Z,99.90
2023-10-20T14:46:39.287Z,99.50
2023-10-20T14:49:25.348Z,99.40
2023-10-20T14:52:10.735Z,99.40
2023-10-20T14:54:57.026Z,99.40
2023-10-20T14:57:42.600Z,99.60
2023-10-20T15:00:28.656Z,99.70
2023-10-20T15:03:16.258Z,99.30
2023-10-20T15:06:02.858Z,99.20
2023-10-20T15:08:48.870Z,99.30
2023-10-20T15:11:34.511Z,99.50
2023-10-20T15:14:20.185Z,99.40
2023-10-20T15:17:05.867Z,99.40
2023-10-20T15:19:51.594Z,99.20
2023-10-20T15:22:37.526Z,99.30
2023-10-20T15:25:23.693Z,99.60
2023-10-20T15:28:09.163Z,99.70
2023-10-20T15:30:54.716Z,99.70
2023-10-20T15:33:40.799Z,99.60
2023-10-20T15:36:26.977Z,99.50
2023-10-20T15:39:12.716Z,99.50
2023-10-20T15:41:58.277Z,99.60
2023-10-20T15:44:44.214Z,99.40
2023-10-20T15:47:30.033Z,99.30
2023-10-20T15:50:16.265Z,99.20
2023-10-20T15:53:02.145Z,99.40
2023-10-20T15:55:47.975Z,99.70
2023-10-20T15:58:33.809Z,99.80
2023-10-20T16:01:19.532Z,99.60
2023-10-20T16:04:05.371Z,99.40
2023-10-20T16:06:50.940Z,99.20
2023-10-20T16:09:36.771Z,99.40
2023-10-20T16:12:22.815Z,99.40
2023-10-20T16:15:09.077Z,99.20
2023-10-20T16:17:54.915Z,99.10
2023-10-20T16:20:41.572Z,99.20
2023-10-20T16:23:27.404Z,99.10
2023-10-20T16:26:12.842Z,99.00
2023-10-20T16:28:58.428Z,99.00
2023-10-20T16:31:44.118Z,98.90
2023-10-20T16:34:29.868Z,98.90
2023-10-20T16:37:15.673Z,99.20
2023-10-20T16:40:01.166Z,99.10
2023-10-20T16:42:47.079Z,99.00
2023-10-20T16:45:32.889Z,99.10
2023-10-20T16:48:18.365Z,99.10
2023-10-20T16:51:04.627Z,99.40
2023-10-20T16:53:50.429Z,99.20
2023-10-20T16:56:35.953Z,99.00
2023-10-20T16:59:21.620Z,98.90
2023-10-20T17:02:07.218Z,98.80
2023-10-20T17:04:52.888Z,98.90
2023-10-20T17:07:38.416Z,98.80
2023-10-20T17:10:24.177Z,99.00
2023-10-20T17:13:09.864Z,99.20
2023-10-20T17:15:55.608Z,99.30
2023-10-20T17:18:41.640Z,99.40
2023-10-20T17:21:27.733Z,99.30
2023-10-20T17:24:13.218Z,99.30
2023-10-20T17:26:58.827Z,99.20
2023-10-20T17:29:44.890Z,99.10
2023-10-20T17:32:30.638Z,99.00
2023-10-20T17:35:16.728Z,99.10
2023-10-20T17:38:02.452Z,99.10
2023-10-20T17:40:48.538Z,99.20
2023-10-20T17:43:36.173Z,99.10
2023-10-20T17:46:22.078Z,99.00
2023-10-20T17:49:08.043Z,99.00
2023-10-20T17:51:53.920Z,99.00
2023-10-20T17:54:39.720Z,99.00
2023-10-20T17:57:25.483Z,99.00
2023-10-20T18:00:12.641Z,98.90
2023-10-20T18:02:59.144Z,99.00
2023-10-20T18:05:45.199Z,99.10
2023-10-20T18:08:31.242Z,99.10
2023-10-20T18:11:19.364Z,99.20
2023-10-20T18:14:06.695Z,99.20
2023-10-20T18:16:52.260Z,99.20
2023-10-20T18:19:37.782Z,99.00
2023-10-20T18:22:23.330Z,99.20
2023-10-20T18:25:10.397Z,99.10
2023-10-20T18:27:56.295Z,99.10
2023-10-20T18:30:41.823Z,99.20
2023-10-20T18:33:29.999Z,99.20
2023-10-20T18:36:16.036Z,99.10
2023-10-20T18:39:01.570Z,99.10
2023-10-20T18:41:47.031Z,99.10
2023-10-20T18:44:32.840Z,99.10
2023-10-20T18:47:18.525Z,99.30
2023-10-20T18:50:04.188Z,99.30
2023-10-20T18:52:49.985Z,99.30
2023-10-20T18:55:35.655Z,99.20
2023-10-20T18:58:21.183Z,99.30
2023-10-20T19:01:06.672Z,99.50
2023-10-20T19:03:52.916Z,99.60
2023-10-20T19:06:38.863Z,99.60
2023-10-20T19:09:24.365Z,99.40
2023-10-20T19:12:10.316Z,99.30
2023-10-20T19:14:56.281Z,99.50
2023-10-20T19:17:42.045Z,99.50
2023-10-20T19:20:28.101Z,99.40
2023-10-20T19:23:13.575Z,99.50
2023-10-20T19:26:06.677Z,99.50
2023-10-20T19:28:52.176Z,99.50
2023-10-20T19:31:37.612Z,99.50
2023-10-20T19:34:23.663Z,99.30
2023-10-20T19:37:09.294Z,99.20
2023-10-20T19:39:54.839Z,99.40
2023-10-20T19:42:40.472Z,99.40
2023-10-20T19:45:28.643Z,99.50
2023-10-20T19:48:14.285Z,99.50
2023-10-20T19:51:00.319Z,99.40
2023-10-20T19:53:45.918Z,99.40
2023-10-20T19:56:31.501Z,99.40
2023-10-20T19:59:17.035Z,99.30
2023-10-20T20:02:02.756Z,99.40
2023-10-20T20:04:52.225Z,99.40
2023-10-20T20:07:37.988Z,99.40
2023-10-20T20:10:24.498Z,99.50
2023-10-20T20:13:10.122Z,99.40
2023-10-20T20:16:10.883Z,99.50
2023-10-20T20:18:56.677Z,99.90
2023-10-20T20:21:42.260Z,99.90
2023-10-20T20:24:27.816Z,99.60
2023-10-20T20:27:13.355Z,99.60
2023-10-20T20:29:58.978Z,99.50
2023-10-20T20:32:45.060Z,99.70
2023-10-20T20:35:30.975Z,99.70
2023-10-20T20:38:16.523Z,99.30
2023-10-20T20:41:06.459Z,99.40
2023-10-20T20:43:51.926Z,99.50
2023-10-20T20:46:37.590Z,99.60
2023-10-20T20:49:23.451Z,99.60
2023-10-20T20:52:09.066Z,99.50
2023-10-20T20:54:56.676Z,99.50
2023-10-20T20:57:42.464Z,99.80
2023-10-20T21:00:28.386Z,99.80
2023-10-20T21:03:14.274Z,99.60
2023-10-20T21:06:03.004Z,99.50
2023-10-20T21:08:48.583Z,99.40
2023-10-20T21:11:35.158Z,99.20
2023-10-20T21:14:20.700Z,99.30
2023-10-20T21:17:06.222Z,99.30
2023-10-20T21:19:51.612Z,99.40
2023-10-20T21:22:37.039Z,99.30
2023-10-20T21:25:22.572Z,99.40
2023-10-20T21:28:07.991Z,99.60
2023-10-20T21:30:53.418Z,99.80
2023-10-20T21:33:39.197Z,99.70
2023-10-20T21:36:25.204Z,99.70
2023-10-20T21:39:10.735Z,99.80
2023-10-20T21:41:56.713Z,99.50
2023-10-20T21:44:42.261Z,99.50
2023-10-20T21:47:27.574Z,99.60
2023-10-20T21:50:13.202Z,99.90
2023-10-20T21:52:59.196Z,99.90
2023-10-20T21:55:44.971Z,99.90
2023-10-20T21:58:31.021Z,99.90
2023-10-20T22:01:16.665Z,99.70
2023-10-20T22:04:02.216Z,99.70
2023-10-20T22:06:48.211Z,99.60
2023-10-20T22:09:46.578Z,99.70
2023-10-20T22:12:39.032Z,99.40
2023-10-20T22:15:24.555Z,99.70
2023-10-20T22:18:10.372Z,99.40
2023-10-20T22:20:56.106Z,99.60
2023-10-20T22:23:41.536Z,99.90
2023-10-20T22:26:27.053Z,99.70
2023-10-20T22:29:12.589Z,99.70
2023-10-20T22:31:58.125Z,99.60
2023-10-20T22:34:43.807Z,99.40
2023-10-20T22:37:29.272Z,99.70
2023-10-20T22:40:14.861Z,99.50
2023-10-20T22:43:00.687Z,99.80
2023-10-20T22:45:46.138Z,99.90
2023-10-20T22:48:32.014Z,99.90
2023-10-20T22:51:17.838Z,99.90
2023-10-20T22:54:03.545Z,99.90
2023-10-20T22:56:49.212Z,99.90
2023-10-20T22:59:34.962Z,99.90
2023-10-20T23:02:20.977Z,99.90
2023-10-20T23:05:10.873Z,99.90
2023-10-20T23:07:56.867Z,99.90
2023-10-20T23:10:42.719Z,99.90
2023-10-20T23:13:28.255Z,99.90
2023-10-20T23:16:14.059Z,99.80
2023-10-20T23:18:59.599Z,99.90
2023-10-20T23:21:45.044Z,99.90
2023-10-20T23:24:30.567Z,99.90
2023-10-20T23:27:16.282Z,99.90
2023-10-20T23:30:02.552Z,99.90
2023-10-20T23:32:48.811Z,99.90
2023-10-20T23:35:34.694Z,99.90
2023-10-20T23:38:20.356Z,99.90
2023-10-20T23:41:05.798Z,99.90
2023-10-20T23:43:54.267Z,99.80
2023-10-20T23:46:39.827Z,99.90
2023-10-20T23:49:25.435Z,99.80
2023-10-20T23:52:10.913Z,99.90
2023-10-20T23:54:56.326Z,99.90
2023-10-20T23:57:41.699Z,99.90
